Shell River, Minnesota
Current Conditions -  °F | °C
As of 4:53 PM on Wednesday 17 Dec 2014 (Local Time) from KPKD Reporting Station
Clear Clear  
Wind Chill: 12°   Ceiling: Unl
Heat Index: 20°   Visibility: 10mi
Dew Point: 11°   Wind: 6mph
Humidity: 68%   Direction: 50°NE
Pressure: 30.25"   Gusts: NA
Location:  46.7591°N, 94.9748°W
Report Text: KPKD 172253Z AUTO 05005KT 10SM CLR M07/M12 A3025 RMK AO2 SLP276 T10671117
Loading
Personal Weather Stations






























Interactive Weather Map New forecast layout! Learn more

10-Day Weather Forecast

Advertisements
Track Severe Weather on mobile